Time;durP1;ratioP1;P1;durP2;ratioP2;P2;SDS_P1;SDS_P2;PMS_P1;PMS_P2;Temp;Humidity;BMP_temperature;BMP_pressure;BME280_temperature;BME280_humidity;BME280_pressure;Samples;Min_cycle;Max_cycle;Signal;HPM_P1;HPM_P2
2021/09/26 00:02:24;;;;;;;;;;;;;;;15.88;75.88;98530.44;1637984;85;26050;-85
2021/09/26 00:04:50;;;;;;;;;;;;;;;15.88;76.01;98532.24;1645292;85;24484;-85
2021/09/26 00:07:16;;;;;;;;;;;;;;;16.01;76.14;98535.45;1641341;85;20894;-84
2021/09/26 00:09:42;;;;;;;;;;;;;;;16.12;76.25;98532.69;1646794;85;20788;-86
2021/09/26 00:12:08;;;;;;;;;;;;;;;16.17;76.35;98534.41;1640661;85;22111;-88
2021/09/26 00:14:38;;;;;;;;;;;;;;;16.23;76.43;98531.70;1648684;85;25966;-85
2021/09/26 00:17:05;;;;;;;;;;;;;;;16.19;76.44;98529.00;1647472;85;24517;-86
2021/09/26 00:19:31;;;;;;;;;;;;;;;16.09;76.46;98530.30;1649310;85;20354;-88
2021/09/26 00:21:57;;;;;;;;;;;;;;;16.07;76.49;98526.16;1640032;85;20257;-85
2021/09/26 00:24:23;;;;;;;;;;;;;;;16.14;76.56;98526.78;1645916;85;20294;-84
2021/09/26 00:26:49;;;;;;;;;;;;;;;16.07;76.58;98520.39;1645714;85;20991;-84
2021/09/26 00:29:15;;;;;;;;;;;;;;;15.97;76.59;98519.56;1643421;85;20875;-84
2021/09/26 00:31:47;;;;;;;;;;;;;;;15.89;76.64;98515.44;1646604;85;20837;-85
2021/09/26 00:34:15;;;;;;;;;;;;;;;15.88;76.66;98511.12;1647303;85;24607;-85
2021/09/26 00:36:41;;;;;;;;;;;;;;;16.02;76.71;98511.22;1642685;86;22048;-85
2021/09/26 00:39:09;;;;;;;;;;;;;;;16.12;76.75;98509.40;1628015;86;26004;-89
2021/09/26 00:41:35;;;;;;;;;;;;;;;16.18;76.78;98509.69;1635669;86;24686;-85
2021/09/26 00:44:01;;;;;;;;;;;;;;;16.20;76.79;98510.36;1629697;86;20206;-85
2021/09/26 00:46:27;;;;;;;;;;;;;;;16.10;76.78;98504.25;1627406;86;24612;-89
2021/09/26 00:48:53;;;;;;;;;;;;;;;15.94;76.73;98507.10;1626972;86;22001;-85
2021/09/26 00:51:21;;;;;;;;;;;;;;;15.79;76.73;98502.73;1644540;86;26039;-85
2021/09/26 00:53:49;;;;;;;;;;;;;;;15.81;76.73;98511.36;1622615;86;24199;-84
2021/09/26 00:56:15;;;;;;;;;;;;;;;15.89;76.74;98514.13;1634739;86;20233;-85
2021/09/26 00:58:41;;;;;;;;;;;;;;;15.94;76.73;98510.58;1627563;86;24581;-86
2021/09/26 01:01:07;;;;;;;;;;;;;;;15.98;76.71;98511.99;1636504;86;22014;-84
2021/09/26 01:03:33;;;;;;;;;;;;;;;16.01;76.71;98522.27;1638828;86;21073;-84
2021/09/26 01:06:04;;;;;;;;;;;;;;;15.91;76.69;98517.47;1632504;86;20286;-88
2021/09/26 01:08:31;;;;;;;;;;;;;;;15.78;76.68;98518.21;1636186;86;20219;-84
2021/09/26 01:11:11;;;;;;;;;;;;;;;15.77;76.65;98512.58;1636509;86;24646;-85
2021/09/26 01:13:49;;;;;;;;;;;;;;;15.74;76.65;98514.19;1633456;86;22728;-86
2021/09/26 01:16:37;;;;;;;;;;;;;;;15.60;76.61;98510.13;1634768;86;26078;-84
2021/09/26 01:19:07;;;;;;;;;;;;;;;15.60;76.63;98510.13;1631956;86;24704;-84
2021/09/26 01:21:38;;;;;;;;;;;;;;;15.58;76.64;98512.57;1637152;86;20218;-85
2021/09/26 01:24:18;;;;;;;;;;;;;;;15.55;76.63;98514.17;1642058;86;24557;-86
2021/09/26 01:26:46;;;;;;;;;;;;;;;15.56;76.64;98515.34;1635084;86;21993;-88
2021/09/26 01:29:29;;;;;;;;;;;;;;;15.63;76.64;98515.63;1629345;86;26007;-89
2021/09/26 01:31:55;;;;;;;;;;;;;;;15.64;76.66;98518.62;1633009;86;25097;-86
2021/09/26 01:34:23;;;;;;;;;;;;;;;15.67;76.64;98518.34;1642452;86;20175;-84
2021/09/26 01:36:51;;;;;;;;;;;;;;;15.64;76.66;98518.62;1651518;84;24614;-84
2021/09/26 01:39:19;;;;;;;;;;;;;;;15.50;76.64;98521.13;1655820;85;22070;-86
2021/09/26 01:41:55;;;;;;;;;;;;;;;15.49;76.64;98526.07;1652111;84;26698;-83
2021/09/26 01:44:26;;;;;;;;;;;;;;;15.52;76.67;98528.45;1666419;83;24541;-88
2021/09/26 01:46:54;;;;;;;;;;;;;;;15.42;76.66;98528.41;1657520;85;20329;-84
2021/09/26 01:49:22;;;;;;;;;;;;;;;15.29;76.65;98528.28;1648915;85;25564;-88
2021/09/26 01:51:49;;;;;;;;;;;;;;;15.12;76.64;98531.55;1656192;85;22021;-89
2021/09/26 01:54:16;;;;;;;;;;;;;;;14.94;76.61;98532.69;1653492;84;26715;-87
2021/09/26 01:56:49;;;;;;;;;;;;;;;14.82;76.61;98538.52;1654642;85;25125;-89
2021/09/26 01:59:18;;;;;;;;;;;;;;;14.74;76.63;98536.16;1654612;85;20317;-84
2021/09/26 02:01:44;;;;;;;;;;;;;;;14.79;76.71;98541.88;1653681;84;24577;-88
2021/09/26 02:04:11;;;;;;;;;;;;;;;14.86;76.77;98540.39;1656367;84;22247;-84
2021/09/26 02:06:38;;;;;;;;;;;;;;;14.79;76.84;98537.92;1652575;84;26052;-86
2021/09/26 02:09:05;;;;;;;;;;;;;;;14.76;76.89;98539.52;1655376;85;24533;-86
2021/09/26 02:11:32;;;;;;;;;;;;;;;14.86;76.95;98543.87;1653280;84;20483;-86
2021/09/26 02:13:59;;;;;;;;;;;;;;;14.89;77.00;98541.47;1653922;85;24631;-86
2021/09/26 02:16:25;;;;;;;;;;;;;;;14.90;77.03;98533.89;1663656;84;21268;-87
2021/09/26 02:18:52;;;;;;;;;;;;;;;14.79;77.05;98537.92;1652132;84;25969;-86
2021/09/26 02:21:19;;;;;;;;;;;;;;;14.80;77.05;98538.28;1653747;85;24509;-85
2021/09/26 02:23:45;;;;;;;;;;;;;;;14.86;77.09;98541.72;1651489;85;20202;-86
2021/09/26 02:26:11;;;;;;;;;;;;;;;14.98;77.11;98549.41;1651693;85;24703;-86
2021/09/26 02:28:37;;;;;;;;;;;;;;;15.10;77.10;98546.20;1656036;84;21951;-83
2021/09/26 02:31:07;;;;;;;;;;;;;;;15.18;77.10;98543.73;1655662;85;26017;-87
2021/09/26 02:33:31;;;;;;;;;;;;;;;15.24;77.07;98552.42;1654173;84;24468;-87
2021/09/26 02:35:57;;;;;;;;;;;;;;;15.25;77.10;98547.98;1657157;84;20345;-86
2021/09/26 02:38:23;;;;;;;;;;;;;;;15.12;77.08;98551.33;1655408;84;20241;-87
2021/09/26 02:40:52;;;;;;;;;;;;;;;14.92;77.05;98555.69;1653469;85;20349;-83
2021/09/26 02:43:28;;;;;;;;;;;;;;;14.90;77.04;98553.17;1654424;86;26122;-87
2021/09/26 02:45:56;;;;;;;;;;;;;;;14.84;77.06;98548.42;1655091;85;24553;-84
2021/09/26 02:48:24;;;;;;;;;;;;;;;14.72;77.04;98549.97;1655141;85;20504;-87
2021/09/26 02:50:51;;;;;;;;;;;;;;;14.65;77.04;98551.80;1655402;84;24530;-86
2021/09/26 02:53:18;;;;;;;;;;;;;;;14.72;77.08;98561.83;1654417;84;21991;-83
2021/09/26 02:55:45;;;;;;;;;;;;;;;14.80;77.13;98556.72;1655971;84;26178;-86
2021/09/26 02:58:12;;;;;;;;;;;;;;;14.89;77.14;98560.72;1654586;84;24535;-83
2021/09/26 03:00:39;;;;;;;;;;;;;;;14.94;77.14;98559.04;1651881;84;20233;-86
2021/09/26 03:03:07;;;;;;;;;;;;;;;14.85;77.13;98557.16;1655940;84;24568;-87
2021/09/26 03:05:33;;;;;;;;;;;;;;;14.79;77.12;98557.69;1655229;84;22717;-86
2021/09/26 03:08:00;;;;;;;;;;;;;;;14.64;77.09;98553.23;1653373;84;21207;-85
2021/09/26 03:10:26;;;;;;;;;;;;;;;14.54;77.07;98547.08;1655504;85;24499;-83
2021/09/26 03:12:52;;;;;;;;;;;;;;;14.51;77.08;98550.80;1631685;86;20219;-87
2021/09/26 03:15:21;;;;;;;;;;;;;;;14.43;77.06;98555.05;1651769;84;24470;-87
2021/09/26 03:17:47;;;;;;;;;;;;;;;14.32;77.06;98554.59;1653744;84;21985;-86
2021/09/26 03:20:13;;;;;;;;;;;;;;;14.28;77.05;98558.45;1652961;84;25988;-84
2021/09/26 03:22:39;;;;;;;;;;;;;;;14.29;77.08;98559.30;1652429;84;20851;-84
2021/09/26 03:25:06;;;;;;;;;;;;;;;14.42;77.14;98558.64;1659017;84;20248;-85
2021/09/26 03:27:32;;;;;;;;;;;;;;;14.53;77.17;98562.52;1656210;84;24503;-88
2021/09/26 03:29:58;;;;;;;;;;;;;;;14.59;77.17;98560.70;1656553;84;20376;-88
2021/09/26 03:32:24;;;;;;;;;;;;;;;14.61;77.15;98563.57;1653894;85;22162;-86
2021/09/26 03:34:50;;;;;;;;;;;;;;;14.65;77.11;98561.02;1650694;84;24472;-87
2021/09/26 03:37:16;;;;;;;;;;;;;;;14.70;77.11;98559.31;1644725;85;20803;-84
2021/09/26 03:39:42;;;;;;;;;;;;;;;14.67;77.12;98562.70;1642383;87;24726;-84
2021/09/26 03:42:08;;;;;;;;;;;;;;;14.64;77.12;98561.98;1647028;85;22640;-87
2021/09/26 03:44:34;;;;;;;;;;;;;;;14.53;77.10;98566.00;1644631;85;26033;-86
2021/09/26 03:47:00;;;;;;;;;;;;;;;14.37;77.08;98564.29;1652172;85;25082;-85
2021/09/26 03:49:27;;;;;;;;;;;;;;;14.26;77.04;98566.95;1647105;85;20312;-86
2021/09/26 03:51:53;;;;;;;;;;;;;;;14.19;77.05;98561.34;1644404;85;24505;-87
2021/09/26 03:54:19;;;;;;;;;;;;;;;14.09;77.05;98559.13;1648558;85;22082;-86
2021/09/26 03:56:45;;;;;;;;;;;;;;;14.02;77.06;98559.26;1644576;85;26120;-85
2021/09/26 03:59:12;;;;;;;;;;;;;;;14.01;77.10;98565.51;1647748;85;24380;-86
2021/09/26 04:01:38;;;;;;;;;;;;;;;14.11;77.14;98567.73;1642590;85;20504;-86
2021/09/26 04:04:04;;;;;;;;;;;;;;;14.24;77.17;98571.49;1646644;85;24649;-83
2021/09/26 04:06:32;;;;;;;;;;;;;;;14.22;77.20;98569.48;1627624;86;22039;-84
2021/09/26 04:08:59;;;;;;;;;;;;;;;14.16;77.21;98568.19;1646338;85;26626;-84
2021/09/26 04:11:25;;;;;;;;;;;;;;;14.24;77.23;98571.49;1649528;85;24542;-85
2021/09/26 04:13:51;;;;;;;;;;;;;;;14.26;77.23;98563.00;1642053;85;20350;-85
2021/09/26 04:16:17;;;;;;;;;;;;;;;14.24;77.25;98567.54;1607347;87;20264;-85
2021/09/26 04:18:43;;;;;;;;;;;;;;;14.23;77.26;98563.27;1612967;87;20341;-85
2021/09/26 04:21:09;;;;;;;;;;;;;;;14.30;77.26;98562.25;1640955;86;21139;-87
2021/09/26 04:23:35;;;;;;;;;;;;;;;14.33;77.26;98564.17;1637245;86;24603;-84
2021/09/26 04:26:01;;;;;;;;;;;;;;;14.37;77.25;98562.14;1640176;86;20323;-86
2021/09/26 04:28:27;;;;;;;;;;;;;;;14.30;77.24;98564.88;1636966;86;24527;-84
2021/09/26 04:30:53;;;;;;;;;;;;;;;14.25;77.22;98569.22;1637736;86;21952;-84
2021/09/26 04:33:19;;;;;;;;;;;;;;;14.13;77.22;98567.59;1641444;86;20960;-86
2021/09/26 04:35:46;;;;;;;;;;;;;;;14.08;77.20;98573.23;1638685;86;24453;-85
2021/09/26 04:38:12;;;;;;;;;;;;;;;14.14;77.22;98572.73;1653244;86;20550;-85
2021/09/26 04:40:40;;;;;;;;;;;;;;;14.20;77.22;98577.98;1643553;85;25124;-85
2021/09/26 04:43:06;;;;;;;;;;;;;;;14.24;77.24;98584.17;1649486;85;21995;-83
2021/09/26 04:45:33;;;;;;;;;;;;;;;14.25;77.24;98585.02;1647004;86;20966;-86
2021/09/26 04:47:59;;;;;;;;;;;;;;;14.20;77.24;98583.24;1644571;86;24405;-84
2021/09/26 04:50:25;;;;;;;;;;;;;;;14.21;77.28;98583.60;1643100;85;20326;-85
2021/09/26 04:52:51;;;;;;;;;;;;;;;14.13;77.28;98586.02;1641655;86;24613;-85
2021/09/26 04:55:17;;;;;;;;;;;;;;;13.96;77.27;98582.63;1650140;85;20946;-87
2021/09/26 04:57:43;;;;;;;;;;;;;;;13.81;77.24;98587.31;1651791;85;20968;-83
2021/09/26 05:00:10;;;;;;;;;;;;;;;13.70;77.25;98584.71;1645572;86;24468;-86
2021/09/26 05:02:36;;;;;;;;;;;;;;;13.60;77.26;98591.19;1642874;86;20248;-86
2021/09/26 05:05:02;;;;;;;;;;;;;;;13.51;77.31;98597.19;1644554;86;20297;-85
2021/09/26 05:07:29;;;;;;;;;;;;;;;13.43;77.37;98593.00;1643858;86;22717;-85
2021/09/26 05:09:55;;;;;;;;;;;;;;;13.37;77.45;98586.91;1661658;84;21006;-88
2021/09/26 05:12:20;;;;;;;;;;;;;;;13.33;77.52;98581.55;1636365;86;20969;-88
2021/09/26 05:14:46;;;;;;;;;;;;;;;13.31;77.61;98579.03;1619531;86;20572;-88
2021/09/26 05:17:12;;;;;;;;;;;;;;;13.36;77.68;98576.87;1647393;85;20227;-84
2021/09/26 05:19:38;;;;;;;;;;;;;;;13.51;77.80;98577.95;1653921;86;20828;-83
2021/09/26 05:22:04;;;;;;;;;;;;;;;13.69;77.90;98577.80;1644737;86;21395;-85
2021/09/26 05:24:30;;;;;;;;;;;;;;;13.79;78.01;98585.31;1640498;86;24380;-85
2021/09/26 05:26:56;;;;;;;;;;;;;;;13.79;78.06;98583.52;1648793;86;20494;-87
2021/09/26 05:29:22;;;;;;;;;;;;;;;13.87;78.11;98585.98;1645678;86;24574;-85
2021/09/26 05:31:48;;;;;;;;;;;;;;;13.96;78.17;98591.84;1644267;86;22192;-86
2021/09/26 05:34:15;;;;;;;;;;;;;;;13.99;78.20;98591.58;1645300;86;26044;-84
2021/09/26 05:36:41;;;;;;;;;;;;;;;13.98;78.23;98584.16;1643292;85;24504;-89
2021/09/26 05:39:07;;;;;;;;;;;;;;;13.93;78.23;98585.49;1643868;86;20263;-87
2021/09/26 05:41:33;;;;;;;;;;;;;;;13.85;78.23;98590.55;1643814;86;20240;-84
2021/09/26 05:43:59;;;;;;;;;;;;;;;13.80;78.24;98595.69;1642423;86;20863;-85
2021/09/26 05:46:25;;;;;;;;;;;;;;;13.92;78.27;98586.45;1641482;86;20958;-88
2021/09/26 05:48:51;;;;;;;;;;;;;;;14.09;78.35;98594.65;1643078;86;24432;-84
2021/09/26 05:51:17;;;;;;;;;;;;;;;14.22;78.40;98594.49;1646478;86;20280;-88
2021/09/26 05:53:43;;;;;;;;;;;;;;;14.28;78.45;98600.58;1641328;86;20780;-87
2021/09/26 05:56:09;;;;;;;;;;;;;;;14.32;78.50;98602.46;1644065;86;21972;-84
2021/09/26 05:58:38;;;;;;;;;;;;;;;14.44;78.53;98604.13;1639060;86;26054;-88
2021/09/26 06:01:04;;;;;;;;;;;;;;;14.50;78.57;98604.45;1641699;86;25382;-83
2021/09/26 06:03:30;;;;;;;;;;;;;;;14.54;78.61;98605.86;1647706;86;20366;-88
2021/09/26 06:05:56;;;;;;;;;;;;;;;14.58;78.63;98609.06;1644229;86;24552;-85
2021/09/26 06:08:26;;;;;;;;;;;;;;;14.61;78.68;98607.03;1644105;86;22081;-86
2021/09/26 06:10:55;;;;;;;;;;;;;;;14.62;78.76;98609.16;1639799;86;26084;-87
2021/09/26 06:13:21;;;;;;;;;;;;;;;14.59;78.83;98599.73;1646906;86;24461;-86
2021/09/26 06:15:47;;;;;;;;;;;;;;;14.56;78.92;98593.89;1645298;86;20547;-88
2021/09/26 06:18:13;;;;;;;;;;;;;;;14.67;79.01;98608.32;1639373;86;24509;-87
2021/09/26 06:20:39;;;;;;;;;;;;;;;14.78;79.09;98610.05;1648345;86;20836;-85
2021/09/26 06:23:05;;;;;;;;;;;;;;;14.87;79.17;98614.53;1643981;86;26114;-88
2021/09/26 06:25:31;;;;;;;;;;;;;;;14.94;79.24;98614.37;1647088;86;20876;-82
2021/09/26 06:27:58;;;;;;;;;;;;;;;14.99;79.30;98609.07;1639705;86;20232;-87
2021/09/26 06:30:24;;;;;;;;;;;;;;;15.06;79.37;98620.73;1639417;86;24634;-85
2021/09/26 06:32:50;;;;;;;;;;;;;;;15.15;79.42;98613.03;1640911;86;21956;-84
2021/09/26 06:35:19;;;;;;;;;;;;;;;15.22;79.50;98619.45;1638727;86;26594;-85
2021/09/26 06:37:45;;;;;;;;;;;;;;;15.14;79.54;98613.51;1638384;86;20857;-84
2021/09/26 06:40:17;;;;;;;;;;;;;;;15.13;79.60;98615.78;1629572;87;20221;-87
2021/09/26 06:42:43;;;;;;;;;;;;;;;15.15;79.70;98616.50;1627208;87;24578;-86
2021/09/26 06:45:09;;;;;;;;;;;;;;;15.24;79.80;98617.02;1627018;87;22057;-88
2021/09/26 06:47:35;;;;;;;;;;;;;;;15.26;79.85;98616.42;1630338;87;26062;-88
2021/09/26 06:50:02;;;;;;;;;;;;;;;15.31;79.92;98618.66;1627855;87;24610;-88
2021/09/26 06:52:28;;;;;;;;;;;;;;;15.38;80.02;98619.80;1632303;87;20276;-88
2021/09/26 06:54:54;;;;;;;;;;;;;;;15.49;80.11;98617.07;1633647;87;25089;-87
2021/09/26 06:57:20;;;;;;;;;;;;;;;15.59;80.19;98623.72;1616136;87;20271;-87
2021/09/26 06:59:47;;;;;;;;;;;;;;;15.69;80.26;98628.06;1636267;86;26023;-87
2021/09/26 07:02:21;;;;;;;;;;;;;;;15.78;80.32;98627.72;1634217;87;24543;-88
2021/09/26 07:04:44;;;;;;;;;;;;;;;15.82;80.40;98622.03;1626886;87;20266;-86
2021/09/26 07:07:10;;;;;;;;;;;;;;;15.87;80.48;98630.89;1633316;87;24564;-84
2021/09/26 07:09:36;;;;;;;;;;;;;;;15.94;80.54;98625.88;1630227;87;21986;-87
2021/09/26 07:12:02;;;;;;;;;;;;;;;15.93;80.59;98629.00;1627380;87;21180;-87
2021/09/26 07:14:28;;;;;;;;;;;;;;;15.90;80.65;98631.93;1631264;87;20358;-83
2021/09/26 07:16:54;;;;;;;;;;;;;;;15.87;80.69;98632.22;1631884;87;20755;-86
2021/09/26 07:19:20;;;;;;;;;;;;;;;15.95;80.75;98634.16;1632974;86;20699;-86
2021/09/26 07:21:47;;;;;;;;;;;;;;;16.01;80.80;98632.30;1629364;87;21988;-83
2021/09/26 07:24:13;;;;;;;;;;;;;;;16.11;80.86;98633.98;1622337;87;25993;-87
2021/09/26 07:26:39;;;;;;;;;;;;;;;16.20;80.95;98634.47;1632647;87;24361;-86
2021/09/26 07:29:05;;;;;;;;;;;;;;;16.30;81.02;98632.70;1632633;87;20715;-86
2021/09/26 07:31:31;;;;;;;;;;;;;;;16.43;81.12;98637.69;1632028;87;24478;-86
2021/09/26 07:33:58;;;;;;;;;;;;;;;16.56;81.19;98640.05;1634955;87;35206;-86
2021/09/26 07:36:24;;;;;;;;;;;;;;;16.62;81.29;98638.22;1633184;87;21058;-86
2021/09/26 07:38:50;;;;;;;;;;;;;;;16.59;81.31;98633.19;1645004;85;20846;-85
2021/09/26 07:41:16;;;;;;;;;;;;;;;16.63;81.32;98643.85;1639348;86;20302;-86
2021/09/26 07:43:42;;;;;;;;;;;;;;;16.74;81.37;98645.03;1640826;86;24519;-84
2021/09/26 07:46:08;;;;;;;;;;;;;;;16.81;81.42;98642.14;1645144;86;22121;-86
2021/09/26 07:48:34;;;;;;;;;;;;;;;16.83;81.44;98641.53;1645647;86;21036;-86
2021/09/26 07:51:00;;;;;;;;;;;;;;;16.78;81.41;98645.08;1641193;86;25382;-86
2021/09/26 07:53:29;;;;;;;;;;;;;;;16.75;81.36;98643.22;1639835;86;20595;-87
2021/09/26 07:55:55;;;;;;;;;;;;;;;16.73;81.34;98643.36;1619858;86;24599;-86
2021/09/26 07:58:21;;;;;;;;;;;;;;;16.75;81.36;98647.99;1645512;85;22077;-86
2021/09/26 08:00:47;;;;;;;;;;;;;;;16.78;81.39;98642.92;1642986;86;25972;-86
2021/09/26 08:03:13;;;;;;;;;;;;;;;16.79;81.40;98647.25;1645248;85;24572;-86
2021/09/26 08:05:39;;;;;;;;;;;;;;;16.79;81.40;98653.85;1640355;86;20265;-87
2021/09/26 08:08:06;;;;;;;;;;;;;;;16.87;81.44;98649.52;1649621;86;25401;-86
2021/09/26 08:10:32;;;;;;;;;;;;;;;16.91;81.49;98652.73;1638685;86;21985;-86
2021/09/26 08:12:59;;;;;;;;;;;;;;;16.95;81.50;98643.05;1645611;86;20987;-84
2021/09/26 08:15:27;;;;;;;;;;;;;;;17.00;81.54;98656.67;1641807;86;24435;-86
2021/09/26 08:17:53;;;;;;;;;;;;;;;17.08;81.54;98654.13;1641050;86;20248;-86
2021/09/26 08:20:19;;;;;;;;;;;;;;;17.15;81.60;98649.95;1642910;86;24593;-86
2021/09/26 08:22:45;;;;;;;;;;;;;;;17.22;81.60;98652.86;1641957;86;21930;-86
2021/09/26 08:25:13;;;;;;;;;;;;;;;17.32;81.63;98650.19;1647340;86;26055;-86
2021/09/26 08:27:45;;;;;;;;;;;;;;;17.37;81.64;98660.68;1651542;86;25231;-84
2021/09/26 08:30:11;;;;;;;;;;;;;;;17.40;81.59;98661.70;1639527;86;20240;-86
2021/09/26 08:32:38;;;;;;;;;;;;;;;17.43;81.54;98660.11;1640528;86;24539;-87
2021/09/26 08:35:08;;;;;;;;;;;;;;;17.47;81.52;98662.80;1662622;85;21961;-88
2021/09/26 08:37:34;;;;;;;;;;;;;;;17.52;81.50;98657.91;1643868;85;26079;-87
2021/09/26 08:40:00;;;;;;;;;;;;;;;17.59;81.50;98660.81;1656270;85;20257;-84
2021/09/26 08:42:28;;;;;;;;;;;;;;;17.64;81.43;98655.94;1657689;84;20267;-84
2021/09/26 08:44:54;;;;;;;;;;;;;;;17.72;81.39;98656.06;1655086;84;24530;-86
2021/09/26 08:47:21;;;;;;;;;;;;;;;17.81;81.40;98659.14;1655220;85;22027;-86
2021/09/26 08:49:47;;;;;;;;;;;;;;;17.92;81.42;98658.11;1653969;85;26051;-86
2021/09/26 08:52:13;;;;;;;;;;;;;;;18.04;81.42;98655.61;1661060;84;24438;-86
2021/09/26 08:54:39;;;;;;;;;;;;;;;18.13;81.40;98656.52;1652156;85;20246;-87
2021/09/26 08:57:06;;;;;;;;;;;;;;;18.27;81.40;98662.13;1654384;85;24593;-86
2021/09/26 08:59:32;;;;;;;;;;;;;;;18.42;81.43;98662.46;1655002;85;22150;-88
2021/09/26 09:02:02;;;;;;;;;;;;;;;18.52;81.38;98653.10;1655648;84;26044;-87
2021/09/26 09:04:38;;;;;;;;;;;;;;;18.61;81.32;98649.56;1656096;85;25249;-84
2021/09/26 09:07:05;;;;;;;;;;;;;;;18.68;81.24;98649.30;1656740;85;20497;-86
2021/09/26 09:09:31;;;;;;;;;;;;;;;18.77;81.16;98649.20;1651577;85;24646;-86
2021/09/26 09:11:59;;;;;;;;;;;;;;;18.85;81.07;98646.29;1652080;85;21968;-85
2021/09/26 09:14:25;;;;;;;;;;;;;;;18.86;80.94;98646.14;1658784;85;26068;-86
2021/09/26 09:16:55;;;;;;;;;;;;;;;18.88;80.79;98645.97;1658014;85;24449;-85
2021/09/26 09:19:22;;;;;;;;;;;;;;;18.89;80.64;98642.34;1651348;85;20246;-85
2021/09/26 09:21:51;;;;;;;;;;;;;;;18.94;80.53;98641.38;1653229;85;24619;-84
2021/09/26 09:24:25;;;;;;;;;;;;;;;18.94;80.40;98644.03;1652427;85;22596;-85
2021/09/26 09:26:52;;;;;;;;;;;;;;;18.96;80.26;98647.38;1656008;85;26242;-86
2021/09/26 09:29:18;;;;;;;;;;;;;;;19.01;80.11;98647.25;1657643;85;24412;-86
2021/09/26 09:31:49;;;;;;;;;;;;;;;19.07;79.95;98648.45;1658137;85;20539;-86
2021/09/26 09:34:28;;;;;;;;;;;;;;;19.11;79.77;98639.18;1652821;85;24514;-86
2021/09/26 09:36:56;;;;;;;;;;;;;;;19.10;79.59;98644.14;1655442;85;22049;-87
2021/09/26 09:39:24;;;;;;;;;;;;;;;19.15;79.46;98644.51;1634720;85;25705;-86
2021/09/26 09:41:50;;;;;;;;;;;;;;;19.25;79.40;98637.79;1654082;85;24683;-86
2021/09/26 09:44:16;;;;;;;;;;;;;;;19.29;79.32;98649.26;1654799;85;20819;-84
2021/09/26 09:46:44;;;;;;;;;;;;;;;19.32;79.18;98650.26;1656243;84;24652;-85
2021/09/26 09:49:14;;;;;;;;;;;;;;;19.36;79.01;98639.69;1657159;85;22032;-84
2021/09/26 09:51:42;;;;;;;;;;;;;;;19.38;78.85;98645.66;1656680;85;26567;-86
2021/09/26 09:54:08;;;;;;;;;;;;;;;19.37;78.64;98642.66;1659022;84;24362;-86
2021/09/26 09:56:42;;;;;;;;;;;;;;;19.38;78.47;98646.14;1656895;85;20609;-85
2021/09/26 09:59:08;;;;;;;;;;;;;;;19.38;78.26;98645.66;1656819;84;24740;-88
2021/09/26 10:01:35;;;;;;;;;;;;;;;19.41;78.08;98646.69;1654165;84;21977;-88
2021/09/26 10:04:05;;;;;;;;;;;;;;;19.40;77.91;98646.34;1657303;84;25840;-84
2021/09/26 10:06:40;;;;;;;;;;;;;;;19.40;77.73;98650.81;1650969;85;24336;-85
2021/09/26 10:09:20;;;;;;;;;;;;;;;19.43;77.54;98640.70;1656054;84;20254;-85
2021/09/26 10:11:54;;;;;;;;;;;;;;;19.54;77.43;98632.50;1650463;84;24617;-85
2021/09/26 10:14:21;;;;;;;;;;;;;;;19.66;77.39;98637.03;1654425;84;22013;-89
2021/09/26 10:16:49;;;;;;;;;;;;;;;19.76;77.25;98627.61;1656492;85;26881;-86
2021/09/26 10:19:22;;;;;;;;;;;;;;;19.85;77.11;98630.65;1656679;85;24362;-86
2021/09/26 10:21:57;;;;;;;;;;;;;;;19.92;76.96;98632.48;1657097;85;20254;-86
2021/09/26 10:24:26;;;;;;;;;;;;;;;19.97;76.75;98631.50;1655492;85;24529;-87
2021/09/26 10:27:06;;;;;;;;;;;;;;;20.01;76.59;98636.02;1657028;84;21653;-86
2021/09/26 10:29:33;;;;;;;;;;;;;;;20.04;76.40;98633.85;1652887;86;25514;-85
2021/09/26 10:32:05;;;;;;;;;;;;;;;20.08;76.24;98633.02;1653922;85;24538;-85
2021/09/26 10:34:32;;;;;;;;;;;;;;;20.16;76.11;98638.38;1655019;84;20505;-84
2021/09/26 10:37:00;;;;;;;;;;;;;;;20.15;75.85;98626.56;1654402;84;24585;-83
2021/09/26 10:39:26;;;;;;;;;;;;;;;20.16;75.66;98626.41;1651826;85;22706;-85
2021/09/26 10:42:03;;;;;;;;;;;;;;;20.18;75.48;98624.44;1657036;84;25972;-84
2021/09/26 10:44:30;;;;;;;;;;;;;;;20.24;75.31;98628.23;1655326;84;24680;-86
2021/09/26 10:47:16;;;;;;;;;;;;;;;20.32;75.12;98624.31;1658600;85;20538;-89
2021/09/26 10:49:49;;;;;;;;;;;;;;;20.36;74.87;98618.99;1657237;84;25221;-88
2021/09/26 10:52:34;;;;;;;;;;;;;;;20.39;74.55;98614.70;1659692;84;22039;-85
2021/09/26 10:55:18;;;;;;;;;;;;;;;20.43;74.33;98614.20;1655086;83;26808;-85
2021/09/26 10:58:01;;;;;;;;;;;;;;;20.50;74.07;98618.86;1656565;84;24492;-89
2021/09/26 11:00:35;;;;;;;;;;;;;;;20.57;73.86;98612.69;1657790;84;20231;-89
2021/09/26 11:03:06;;;;;;;;;;;;;;;20.65;73.62;98614.03;1654582;84;24642;-86
2021/09/26 11:05:33;;;;;;;;;;;;;;;20.69;73.32;98609.20;1650749;85;22091;-87
2021/09/26 11:08:02;;;;;;;;;;;;;;;20.74;73.11;98609.04;1654483;85;26784;-87
2021/09/26 11:10:48;;;;;;;;;;;;;;;20.81;72.89;98610.53;1655235;85;25372;-87
2021/09/26 11:13:19;;;;;;;;;;;;;;;20.91;72.75;98611.69;1651105;85;20276;-87
2021/09/26 11:16:03;;;;;;;;;;;;;;;20.98;72.60;98602.88;1655762;85;24605;-88
2021/09/26 11:18:50;;;;;;;;;;;;;;;21.10;72.48;98604.69;1661418;85;22044;-84
2021/09/26 11:21:34;;;;;;;;;;;;;;;21.25;72.43;98602.52;1661248;85;26091;-84
2021/09/26 11:24:01;;;;;;;;;;;;;;;21.26;72.14;98608.18;1652636;85;24433;-84
2021/09/26 11:26:29;;;;;;;;;;;;;;;21.24;71.78;98602.68;1654523;85;20215;-83
2021/09/26 11:28:59;;;;;;;;;;;;;;;21.30;71.56;98612.65;1653115;85;24796;-84
2021/09/26 11:31:41;;;;;;;;;;;;;;;21.29;71.34;98605.66;1659192;85;22046;-84
2021/09/26 11:34:07;;;;;;;;;;;;;;;21.26;71.05;98605.52;1659766;84;25993;-83
2021/09/26 11:36:33;;;;;;;;;;;;;;;21.26;70.81;98597.53;1653013;85;24489;-83
2021/09/26 11:39:07;;;;;;;;;;;;;;;21.31;70.71;98593.02;1657955;85;20698;-84
2021/09/26 11:41:34;;;;;;;;;;;;;;;21.33;70.55;98588.33;1645828;85;24573;-88
2021/09/26 11:44:02;;;;;;;;;;;;;;;21.33;70.37;98593.66;1643742;85;22059;-85
2021/09/26 11:46:28;;;;;;;;;;;;;;;21.34;70.17;98587.84;1621731;87;26039;-85
2021/09/26 11:48:59;;;;;;;;;;;;;;;21.35;70.01;98584.17;1642751;85;23971;-88
2021/09/26 11:51:25;;;;;;;;;;;;;;;21.34;69.83;98583.84;1644878;86;20687;-84
2021/09/26 11:53:51;;;;;;;;;;;;;;;21.37;69.73;98582.19;1637489;86;24530;-85
2021/09/26 11:56:22;;;;;;;;;;;;;;;21.45;69.72;98576.81;1638597;85;22003;-84
2021/09/26 11:58:52;;;;;;;;;;;;;;;21.55;69.68;98574.77;1642208;86;25705;-85
2021/09/26 12:01:29;;;;;;;;;;;;;;;21.64;69.64;98573.75;1639187;86;24511;-83
2021/09/26 12:04:05;;;;;;;;;;;;;;;21.67;69.47;98572.89;1650004;85;20341;-83
2021/09/26 12:06:32;;;;;;;;;;;;;;;21.66;69.16;98571.73;1640898;85;24317;-84
2021/09/26 12:08:58;;;;;;;;;;;;;;;21.68;69.01;98563.91;1646504;85;22070;-87
2021/09/26 12:11:25;;;;;;;;;;;;;;;21.78;69.01;98561.02;1647878;85;26045;-86
2021/09/26 12:13:55;;;;;;;;;;;;;;;21.83;68.93;98565.81;1645244;85;24515;-83
2021/09/26 12:16:22;;;;;;;;;;;;;;;21.83;68.70;98567.98;1649472;85;20248;-83
2021/09/26 12:18:59;;;;;;;;;;;;;;;21.79;68.44;98562.68;1652305;85;25321;-83
2021/09/26 12:21:27;;;;;;;;;;;;;;;21.79;68.26;98557.35;1650963;85;23009;-85
2021/09/26 12:24:01;;;;;;;;;;;;;;;21.84;68.13;98554.98;1645780;85;26828;-89
2021/09/26 12:26:41;;;;;;;;;;;;;;;21.90;68.02;98558.29;1650392;85;24517;-88
2021/09/26 12:29:15;;;;;;;;;;;;;;;21.87;67.79;98554.66;1647308;85;20361;-88
2021/09/26 12:31:42;;;;;;;;;;;;;;;21.87;67.60;98555.98;1642483;85;25425;-88
2021/09/26 12:34:09;;;;;;;;;;;;;;;21.87;67.46;98554.66;1644496;85;22042;-83
2021/09/26 12:36:39;;;;;;;;;;;;;;;21.85;67.28;98556.66;1650760;85;26149;-89
2021/09/26 12:39:06;;;;;;;;;;;;;;;21.81;67.13;98554.02;1646099;85;24468;-87
2021/09/26 12:41:37;;;;;;;;;;;;;;;21.77;66.95;98558.02;1658194;84;20227;-83
2021/09/26 12:44:05;;;;;;;;;;;;;;;21.75;66.77;98556.55;1660816;84;24557;-83
2021/09/26 12:46:35;;;;;;;;;;;;;;;21.75;66.68;98557.38;1657938;84;21994;-83
2021/09/26 12:49:03;;;;;;;;;;;;;;;21.71;66.63;98560.08;1660452;84;26816;-85
2021/09/26 12:51:31;;;;;;;;;;;;;;;21.69;66.52;98563.41;1655221;84;24548;-83
2021/09/26 12:53:59;;;;;;;;;;;;;;;21.68;66.53;98563.07;1661923;84;20319;-87